KASX

John F Kennedy Memorial Airport

Ashland, Wisconsin, USA
METAR KASX 121053Z AUTO 00000KT 5SM BR OVC018 M04/M06 A2980 RMK AO2 SLP103 T10441061
Observed Flight Rules
Dec-12 @ 10:53 UTC (15 minutes ago) Marginal Visual Flight Rules
Visibility Clouds Conditions
5 miles
  • Overcast at 1,800' AGL
  • Mist
Temperatures Readings
Current -4°C / 25°F
Dewpoint -6°C / 21°F
Humidity 86%
Altimeter 29.8" Hg
Pressure 1010.3 hPa
Elevation 251
METAR KASX 121053Z AUTO 00000KT 5SM BR OVC018 M04/M06 A2980 RMK AO2 SLP103 T10441061
Observed Flight Rules
Dec-12 @ 10:53 UTC
(15 minutes ago)
MVFR
Clouds
  • Overcast at 1,800' AGL
Conditions
  • Mist
Temperature Dewpoint
-4°C / 25°F -6°C / 21°F
Humidity Altimeter Pressure
86% 29.8" Hg 1010.3 hPa